Terminal Aerodrome Forecast
Issued by NWS Spokane, WA

Home | Current Version | Previous Version | Text Only | Print | Product List | Glossary On
Versions: 1 2 3 4 5 6 7 8 9 10 11 12 13 14 15 16 17 18 19 20 21 22 23 24 25 26 27 28 29
000
FTUS46 KOTX 261125
TAFLWS
TAF
KLWS 261125Z 2612/2712 00000KT P6SM VCSH BKN050 OVC090
     FM261400 VRB03KT P6SM BKN070
     FM262000 VRB04KT P6SM SCT030 SCT070
     FM270900 14003KT P6SM BKN150=

USA.gov is the U.S. government's official web portal to all federal, state and local government web resources and services.